Avalon — PBSF — position and weather

sailwx.info

Track history (hours):
 
Tides and Currents Weather Stations Pressure Air Temp Water Temp Dewpoint Dewpoint Depression Visibility Wind Speed Wind Dir Waves Ship Positions

Avalon

Last reported at 2017-Sep-21 00:13 UTC. Time now 2017-Sep-23 09:29 UTC.
Position N 53°11' W 009°38'.

Length 89 m; draft 3.2 m.

Type: Cargo ship. MMSI: 246578000.

Date/timePositionNaut miles runAvg speedWind from/ knotsBaromVisibWave heightAir tempDewpointWater temp
2017-Sep-21 00:13N 53°11' W 009°38'2 6.9
2017-Sep-21 00:00N 53°11' W 009°41'4 7.2
2017-Sep-20 23:28N 53°11' W 009°47'3 7.0
2017-Sep-20 23:00N 53°12' W 009°53'3 6.9
2017-Sep-20 22:30N 53°13' W 009°58'4 7.4
2017-Sep-20 22:00N 53°14' W 010°04'4 7.9
2017-Sep-20 21:30N 53°15' W 010°10'4 7.5
2017-Sep-20 21:00N 53°18' W 010°15'4 8.0
2017-Sep-20 20:30N 53°22' W 010°17'4 7.9
2017-Sep-20 20:00N 53°25' W 010°19'4 7.9
2017-Sep-20 19:30N 53°29' W 010°21'4 8.2
2017-Sep-20 19:00N 53°33' W 010°23'4 8.0
2017-Sep-20 18:30N 53°37' W 010°24'4 7.9
2017-Sep-20 18:00N 53°41' W 010°25'4 8.1
2017-Sep-20 17:30N 53°45' W 010°25'4 8.3
2017-Sep-20 16:59N 53°49' W 010°25'4 8.8
2017-Sep-20 16:30N 53°54' W 010°25'4 8.6
2017-Sep-20 16:01N 53°58' W 010°25'4 8.0
2017-Sep-20 15:30N 54°02' W 010°25'13 8.5
2017-Sep-20 13:59N 54°15' W 010°24'5 8.5
2017-Sep-20 13:24N 54°20' W 010°23'15 7.7
2017-Sep-20 11:24N 54°30' W 010°03'8 7.3
2017-Sep-20 10:19N 54°35' W 009°53'10 7.6
2017-Sep-20 09:03N 54°41' W 009°40'0 7.9
2017-Sep-20 08:59N 54°41' W 009°39'28 8.3
2017-Sep-20 05:34N 54°59' W 008°60'1 8.7
2017-Sep-20 05:28N 54°59' W 008°58'7 8.4
2017-Sep-20 04:39N 55°04' W 008°49'2 7.9
2017-Sep-20 04:24N 55°05' W 008°47'3 6.6
2017-Sep-20 04:00N 55°07' W 008°43'3 5.1
2017-Sep-20 03:29N 55°08' W 008°40'3 5.2
2017-Sep-20 02:54N 55°10' W 008°35'3 6.2
2017-Sep-20 02:21N 55°12' W 008°30'2 6.0
2017-Sep-20 02:00N 55°13' W 008°28'4 6.8
2017-Sep-20 01:22N 55°16' W 008°22'4 7.2
2017-Sep-20 00:50N 55°18' W 008°16'3 8.0
2017-Sep-20 00:27N 55°19' W 008°11'11 9.3
2017-Sep-19 23:16N 55°23' W 007°53'4 9.9
2017-Sep-19 22:53N 55°24' W 007°46'410.1
2017-Sep-19 22:27N 55°25' W 007°39'5 9.8
2017-Sep-19 21:58N 55°26' W 007°31'510.5
2017-Sep-19 21:30N 55°27' W 007°22'7 9.8
2017-Sep-19 20:49N 55°28' W 007°11'5 9.3
2017-Sep-19 20:14N 55°27' W 007°01'4 8.8
2017-Sep-19 19:45N 55°27' W 006°54'2 8.8
2017-Sep-19 19:29N 55°27' W 006°50'4 9.2
2017-Sep-19 19:00N 55°26' W 006°42'5 9.5
2017-Sep-19 18:30N 55°26' W 006°34'5 9.9
2017-Sep-19 18:00N 55°25' W 006°25'510.4
2017-Sep-19 17:30N 55°25' W 006°16'611.5
2017-Sep-19 17:00N 55°24' W 006°06'611.9
2017-Sep-19 16:30N 55°20' W 005°58'713.7
2017-Sep-19 16:00N 55°14' W 005°52'713.6
2017-Sep-19 15:28N 55°08' W 005°47'613.8
2017-Sep-19 15:01N 55°02' W 005°43'713.5
2017-Sep-19 14:30N 54°55' W 005°39'713.0
2017-Sep-19 14:00N 54°49' W 005°38'612.0
2017-Sep-19 13:31N 54°43' W 005°43'611.5
2017-Sep-19 13:00N 54°40' W 005°51'3 3.1
2017-Sep-19 11:58N 54°37' W 005°54'0 0.0
2017-Sep-19 09:04N 54°37' W 005°54'0 0.0
2017-Sep-19 08:55N 54°37' W 005°54'0 0.0
2017-Sep-19 06:46N 54°37' W 005°54'0 0.0
2017-Sep-19 06:28N 54°37' W 005°54'0 0.0
2017-Sep-19 06:00N 54°37' W 005°54'0 0.0
2017-Sep-19 05:30N 54°37' W 005°54'0 0.0
2017-Sep-19 04:59N 54°37' W 005°54'0 0.0
2017-Sep-19 04:30N 54°37' W 005°54'0 0.0
2017-Sep-19 04:00N 54°37' W 005°54'0 0.0
2017-Sep-19 03:29N 54°37' W 005°54'0 0.0
2017-Sep-19 03:00N 54°37' W 005°54'0 0.0
2017-Sep-19 02:30N 54°37' W 005°54'0 0.0
2017-Sep-19 02:00N 54°37' W 005°54'0 0.0
2017-Sep-19 01:30N 54°37' W 005°54'0 0.0
2017-Sep-19 01:00N 54°37' W 005°54'0 0.0
2017-Sep-19 00:30N 54°37' W 005°54'0 0.0
2017-Sep-19 00:00N 54°37' W 005°54'0 0.0
2017-Sep-18 23:30N 54°37' W 005°54'0 0.0
2017-Sep-18 23:00N 54°37' W 005°54'0 0.0
2017-Sep-18 22:30N 54°37' W 005°54'0 0.0
2017-Sep-18 21:59N 54°37' W 005°54'0 0.0
2017-Sep-18 21:26N 54°37' W 005°54'0 0.0
2017-Sep-18 20:06N 54°37' W 005°54'0 0.0
2017-Sep-18 19:58N 54°37' W 005°54'0 0.0
2017-Sep-18 19:11N 54°37' W 005°54'0 0.0
2017-Sep-18 19:00N 54°37' W 005°54'0 0.0
2017-Sep-18 18:24N 54°37' W 005°54'0 0.0
2017-Sep-18 18:00N 54°37' W 005°54'0 0.0
2017-Sep-18 17:30N 54°37' W 005°54'0 0.0
2017-Sep-18 17:00N 54°37' W 005°54'0 0.0
2017-Sep-18 16:30N 54°37' W 005°54'0 0.0
2017-Sep-18 16:00N 54°37' W 005°54'0 0.0
2017-Sep-18 15:30N 54°37' W 005°54'0 0.0
2017-Sep-18 14:59N 54°37' W 005°54'0 0.0
2017-Sep-18 14:30N 54°37' W 005°54'0 0.0
2017-Sep-18 14:00N 54°37' W 005°54'0 0.0
2017-Sep-18 13:30N 54°37' W 005°54'0 0.0
2017-Sep-18 13:00N 54°37' W 005°54'0 0.0
2017-Sep-18 12:29N 54°37' W 005°54'0 0.0
2017-Sep-18 12:00N 54°37' W 005°54'0 0.0
2017-Sep-18 11:29N 54°37' W 005°54'0 0.0
2017-Sep-18 11:00N 54°37' W 005°54'0 0.0
2017-Sep-18 10:23N 54°37' W 005°54'0 0.0
2017-Sep-18 09:50N 54°37' W 005°54'0 0.0
2017-Sep-18 09:19N 54°37' W 005°54'0 0.0
2017-Sep-18 09:00N 54°37' W 005°54'0 0.0
2017-Sep-18 08:14N 54°37' W 005°54'0 0.0
2017-Sep-18 07:56N 54°37' W 005°54'0 0.0
2017-Sep-18 07:29N 54°37' W 005°54'0 0.0
2017-Sep-18 07:00N 54°37' W 005°54'0 0.0
2017-Sep-18 06:28N 54°37' W 005°54'0 0.0
2017-Sep-18 05:59N 54°37' W 005°54'0 0.0
2017-Sep-18 05:30N 54°37' W 005°54'0 0.0
2017-Sep-18 05:00N 54°37' W 005°54'0 0.0
2017-Sep-18 04:30N 54°37' W 005°54'0 0.0
2017-Sep-18 04:00N 54°37' W 005°54'0 0.0
2017-Sep-18 03:30N 54°37' W 005°54'0 0.0
2017-Sep-18 02:59N 54°37' W 005°54'0 0.0
2017-Sep-18 02:30N 54°37' W 005°54'0 0.0
2017-Sep-18 02:00N 54°37' W 005°54'0 0.0
2017-Sep-18 01:30N 54°37' W 005°54'0 0.0
2017-Sep-18 01:00N 54°37' W 005°54'0 0.0
2017-Sep-18 00:29N 54°37' W 005°54'0 0.0
2017-Sep-18 00:00N 54°37' W 005°54'0 0.0
2017-Sep-17 23:30N 54°37' W 005°54'0 0.0
2017-Sep-17 23:00N 54°37' W 005°54'0 0.0
2017-Sep-17 22:29N 54°37' W 005°54'0 0.0
2017-Sep-17 21:59N 54°37' W 005°54'0 0.0
2017-Sep-17 21:30N 54°37' W 005°54'0 0.0
2017-Sep-17 21:00N 54°37' W 005°54'0 0.0
2017-Sep-17 20:30N 54°37' W 005°54'0 0.0
2017-Sep-17 20:00N 54°37' W 005°54'0 0.0
2017-Sep-17 19:29N 54°37' W 005°54'0 0.0
2017-Sep-17 18:58N 54°37' W 005°54'0 0.0
2017-Sep-17 18:30N 54°37' W 005°54'2 3.9
2017-Sep-17 18:00N 54°39' W 005°52'510.0
2017-Sep-17 17:30N 54°42' W 005°45'2 3.8
2017-Sep-17 16:59N 54°41' W 005°42'0 0.0
2017-Sep-17 16:29N 54°41' W 005°42'0 0.0
2017-Sep-17 15:59N 54°41' W 005°42'0 0.0
2017-Sep-17 15:29N 54°41' W 005°42'0 0.0
2017-Sep-17 14:59N 54°41' W 005°42'0 0.0
2017-Sep-17 14:29N 54°41' W 005°42'0 0.0
2017-Sep-17 13:59N 54°41' W 005°42'0 0.0
2017-Sep-17 13:29N 54°41' W 005°42'0 0.0
2017-Sep-17 12:59N 54°41' W 005°42'0 0.0
2017-Sep-17 12:29N 54°41' W 005°42'0 0.0
2017-Sep-17 11:59N 54°41' W 005°42'0 0.0
2017-Sep-17 11:29N 54°41' W 005°42'0 0.0
2017-Sep-17 10:59N 54°41' W 005°42'0 0.0
2017-Sep-17 10:29N 54°41' W 005°42'0 0.0
2017-Sep-17 09:59N 54°41' W 005°42'0 0.0
2017-Sep-17 09:29N 54°41' W 005°42'0 0.0
2017-Sep-17 08:59N 54°41' W 005°42'0 0.0
2017-Sep-17 08:29N 54°41' W 005°42'0 0.0
2017-Sep-17 07:59N 54°41' W 005°42'0 0.0
2017-Sep-17 07:29N 54°41' W 005°42'0 0.0
2017-Sep-17 06:59N 54°41' W 005°42'0 0.0
2017-Sep-17 06:29N 54°41' W 005°42'0 0.0
2017-Sep-17 05:59N 54°41' W 005°42'0 0.0
2017-Sep-17 05:29N 54°41' W 005°42'0 0.0
2017-Sep-17 04:59N 54°41' W 005°42'0 0.0
2017-Sep-17 04:29N 54°41' W 005°42'0 0.0
2017-Sep-17 03:59N 54°41' W 005°42'0 0.0
2017-Sep-17 03:29N 54°41' W 005°42'0 0.0
2017-Sep-17 02:59N 54°41' W 005°42'0 0.0
2017-Sep-17 02:29N 54°41' W 005°42'0 0.0
2017-Sep-17 01:59N 54°41' W 005°42'0 0.0
2017-Sep-17 01:29N 54°41' W 005°42'0 0.0
2017-Sep-17 00:59N 54°41' W 005°42'0 0.0
2017-Sep-17 00:29N 54°41' W 005°42'0 0.0
2017-Sep-16 23:59N 54°41' W 005°42'0 0.0
2017-Sep-16 23:29N 54°41' W 005°42'0 0.0
2017-Sep-16 22:56N 54°41' W 005°42'0 0.0
2017-Sep-16 22:29N 54°41' W 005°42'0 0.0
2017-Sep-16 22:00N 54°41' W 005°42'0 0.1
2017-Sep-16 21:30N 54°41' W 005°42'2 4.1
2017-Sep-16 21:00N 54°43' W 005°41'5 9.1
2017-Sep-16 20:30N 54°48' W 005°39'510.0
2017-Sep-16 20:01N 54°52' W 005°42'510.3
2017-Sep-16 19:30N 54°56' W 005°48'510.9
2017-Sep-16 19:00N 55°02' W 005°51'611.5
2017-Sep-16 18:30N 55°07' W 005°54'612.5
2017-Sep-16 18:00N 55°13' W 005°58'612.6
2017-Sep-16 17:30N 55°18' W 006°04'611.5
2017-Sep-16 17:01N 55°21' W 006°12'611.3
2017-Sep-16 16:30N 55°24' W 006°22'511.0
2017-Sep-16 16:00N 55°27' W 006°30'510.6
2017-Sep-16 15:30N 55°31' W 006°35'510.5
2017-Sep-16 15:00N 55°35' W 006°40'510.3
2017-Sep-16 14:30N 55°40' W 006°46'5 9.4
2017-Sep-16 14:00N 55°44' W 006°50'5 9.1
2017-Sep-16 13:30N 55°48' W 006°54'168 8.9
2017-Sep-15 18:35N 58°28' W 005°22'1 9.5
2017-Sep-15 18:28N 58°29' W 005°21'36 7.2
2017-Sep-15 13:29N 58°41' W 004°16'4 7.8
2017-Sep-15 13:00N 58°41' W 004°09'4 7.9
2017-Sep-15 12:30N 58°41' W 004°01'4 8.2
2017-Sep-15 12:00N 58°42' W 003°53'4 8.1
2017-Sep-15 11:30N 58°42' W 003°46'4 8.2
2017-Sep-15 11:00N 58°42' W 003°38'4 8.2
2017-Sep-15 10:30N 58°42' W 003°30'4 8.8
2017-Sep-15 10:00N 58°43' W 003°22'510.1
2017-Sep-15 09:30N 58°43' W 003°12'611.0
2017-Sep-15 09:00N 58°41' W 003°02'510.7
2017-Sep-15 08:30N 58°38' W 002°55'5 9.1
2017-Sep-15 08:01N 58°34' W 002°50'5 8.9
2017-Sep-15 07:30N 58°30' W 002°44'4 8.7
2017-Sep-15 06:59N 58°27' W 002°39'41 8.0
2017-Sep-15 01:49N 57°53' W 001°53'3 7.8
2017-Sep-15 01:30N 57°51' W 001°50'4 8.1
2017-Sep-15 01:01N 57°48' W 001°46'4 7.9
2017-Sep-15 00:30N 57°44' W 001°43'4 8.0
2017-Sep-15 00:00N 57°41' W 001°38'4 7.8
2017-Sep-14 23:30N 57°38' W 001°34'4 7.9
2017-Sep-14 23:00N 57°34' W 001°31'4 8.2
2017-Sep-14 22:30N 57°30' W 001°29'170 7.6
2017-Sep-14 00:03N 54°48' E 000°01'1 9.0
2017-Sep-13 23:59N 54°48' E 000°01'4 9.0
2017-Sep-13 23:30N 54°43' E 000°03'4 8.9
2017-Sep-13 23:00N 54°39' E 000°05'4 8.9
2017-Sep-13 22:30N 54°35' E 000°08'4 8.7
2017-Sep-13 22:00N 54°31' E 000°09'4 8.4
2017-Sep-13 21:30N 54°27' E 000°11'4 8.3
2017-Sep-13 21:00N 54°23' E 000°13'4 8.1
2017-Sep-13 20:30N 54°19' E 000°15'4 8.3
2017-Sep-13 20:00N 54°15' E 000°18'4 8.4
2017-Sep-13 19:30N 54°11' E 000°20'4 8.8
2017-Sep-13 19:01N 54°07' E 000°23'5 9.0
2017-Sep-13 18:30N 54°03' E 000°26'5 8.9
2017-Sep-13 18:00N 53°59' E 000°29'46 8.5
2017-Sep-13 12:38N 53°19' E 001°09'1 5.9
2017-Sep-13 12:30N 53°19' E 001°09'3 5.9
2017-Sep-13 12:00N 53°16' E 001°11'2 4.8
2017-Sep-13 11:30N 53°14' E 001°13'2 3.9
2017-Sep-13 11:00N 53°13' E 001°16'2 3.8
2017-Sep-13 10:30N 53°11' E 001°17'2 4.1
2017-Sep-13 10:00N 53°09' E 001°19'2 4.2
2017-Sep-13 09:30N 53°07' E 001°21'2 3.9
2017-Sep-13 09:00N 53°06' E 001°22'2 4.2
2017-Sep-13 08:30N 53°04' E 001°24'2 4.2
2017-Sep-13 08:00N 53°02' E 001°26'3 5.2
2017-Sep-13 07:30N 53°00' E 001°29'3 6.0
2017-Sep-13 07:00N 52°58' E 001°32'4 7.2
2017-Sep-13 06:30N 52°55' E 001°36'4 8.5
2017-Sep-13 06:00N 52°52' E 001°40'5 9.1
2017-Sep-13 05:30N 52°48' E 001°46'5 9.4
2017-Sep-13 05:00N 52°45' E 001°51'5 9.8
2017-Sep-13 04:30N 52°41' E 001°55'4 7.9
2017-Sep-13 04:00N 52°40' E 002°02'4 7.1
2017-Sep-13 03:30N 52°39' E 002°07'64 7.7
2017-Sep-12 19:13N 52°32' E 003°52'2 7.9
2017-Sep-12 19:00N 52°32' E 003°55'4 7.7
2017-Sep-12 18:29N 52°32' E 004°02'4 7.4
2017-Sep-12 18:00N 52°31' E 004°07'4 7.4
2017-Sep-12 17:30N 52°31' E 004°13'4 7.6
2017-Sep-12 17:00N 52°30' E 004°19'4 7.7
2017-Sep-12 16:30N 52°29' E 004°26'4 7.6
2017-Sep-12 16:00N 52°28' E 004°32'2 4.7
2017-Sep-12 15:30N 52°28' E 004°36'2 3.7
2017-Sep-12 15:00N 52°28' E 004°39'4 8.3
2017-Sep-12 14:31N 52°26' E 004°45'4 9.0
2017-Sep-12 14:01N 52°25' E 004°52'0 0.8
2017-Sep-12 13:30N 52°24' E 004°52'0 0.0
2017-Sep-12 13:01N 52°24' E 004°52'0 0.0
2017-Sep-12 12:31N 52°24' E 004°52'0 0.0
2017-Sep-12 12:01N 52°24' E 004°52'0 0.0
2017-Sep-12 11:31N 52°24' E 004°52'0 0.0
2017-Sep-12 10:57N 52°24' E 004°52'0 0.0
2017-Sep-12 10:31N 52°24' E 004°52'0 0.3
2017-Sep-12 10:01N 52°25' E 004°52'1 1.2
2017-Sep-12 09:28N 52°24' E 004°52'0 0.0
2017-Sep-12 08:58N 52°24' E 004°52'0 0.0
2017-Sep-12 08:28N 52°24' E 004°52'0 0.0
2017-Sep-12 07:58N 52°24' E 004°52'0 0.0
2017-Sep-12 07:28N 52°24' E 004°52'0 0.0
2017-Sep-12 06:58N 52°24' E 004°52'0 0.0
2017-Sep-12 06:28N 52°24' E 004°52'0 0.0
2017-Sep-12 05:58N 52°24' E 004°52'0 0.0
2017-Sep-12 05:28N 52°24' E 004°52'0 0.0
2017-Sep-12 04:58N 52°24' E 004°52'0 0.0
2017-Sep-12 04:28N 52°24' E 004°52'0 0.0
2017-Sep-12 03:58N 52°24' E 004°52'0 0.0
2017-Sep-12 03:28N 52°24' E 004°52'0 0.0
2017-Sep-12 02:58N 52°24' E 004°52'0 0.0
2017-Sep-12 02:28N 52°24' E 004°52'0 0.0
2017-Sep-12 01:58N 52°24' E 004°52'0 0.0
2017-Sep-12 01:28N 52°24' E 004°52'0 0.0
2017-Sep-12 00:58N 52°24' E 004°52'0 0.0
2017-Sep-12 00:25N 52°24' E 004°52'0 0.0
2017-Sep-11 23:58N 52°24' E 004°52'0 0.0
2017-Sep-11 23:28N 52°24' E 004°52'0 0.0
2017-Sep-11 22:58N 52°24' E 004°52'0 0.0
2017-Sep-11 22:28N 52°24' E 004°52'0 0.0
2017-Sep-11 21:58N 52°24' E 004°52'0 0.0
2017-Sep-11 21:28N 52°24' E 004°52'0 0.0
2017-Sep-11 20:58N 52°24' E 004°52'0 0.0
2017-Sep-11 20:28N 52°24' E 004°52'0 0.0
2017-Sep-11 19:58N 52°24' E 004°52'0 0.0
2017-Sep-11 19:28N 52°24' E 004°52'0 0.0
2017-Sep-11 18:58N 52°24' E 004°52'0 0.0
2017-Sep-11 18:28N 52°24' E 004°52'0 0.0
2017-Sep-11 17:58N 52°24' E 004°52'0 0.0
2017-Sep-11 17:28N 52°24' E 004°52'0 0.0
2017-Sep-11 16:58N 52°24' E 004°52'0 0.0
2017-Sep-11 16:28N 52°24' E 004°52'0 0.0
2017-Sep-11 15:58N 52°24' E 004°52'0 0.0
2017-Sep-11 15:28N 52°24' E 004°52'0 0.0
2017-Sep-11 14:58N 52°24' E 004°52'0 0.0
2017-Sep-11 14:28N 52°24' E 004°52'0 0.0
2017-Sep-11 13:58N 52°24' E 004°52'0 0.0
2017-Sep-11 13:25N 52°24' E 004°52'0 0.0
2017-Sep-11 12:58N 52°24' E 004°52'0 0.0
2017-Sep-11 12:28N 52°24' E 004°52'0 0.0
2017-Sep-11 11:58N 52°24' E 004°52'0 0.0
2017-Sep-11 11:28N 52°24' E 004°52'0 0.0
2017-Sep-11 10:58N 52°24' E 004°52'0 0.0
2017-Sep-11 10:28N 52°24' E 004°52'0 0.0
2017-Sep-11 09:58N 52°24' E 004°52'0 0.0
2017-Sep-11 09:28N 52°24' E 004°52'0 0.0
2017-Sep-11 08:58N 52°24' E 004°52'0 0.0
2017-Sep-11 08:28N 52°24' E 004°52'0 0.0
2017-Sep-11 07:58N 52°24' E 004°52'0 0.0
2017-Sep-11 07:25N 52°24' E 004°52'0 0.0
2017-Sep-11 06:58N 52°24' E 004°52'0 0.0
2017-Sep-11 06:28N 52°24' E 004°52'0 0.0
2017-Sep-11 05:58N 52°24' E 004°52'0 0.0
2017-Sep-11 05:28N 52°24' E 004°52'0 0.0
2017-Sep-11 04:58N 52°24' E 004°52'0 0.0
2017-Sep-11 04:28N 52°24' E 004°52'0 0.0
2017-Sep-11 03:58N 52°24' E 004°52'0 0.0
2017-Sep-11 03:28N 52°24' E 004°52'0 0.0
2017-Sep-11 02:58N 52°24' E 004°52'0 0.0
2017-Sep-11 02:28N 52°24' E 004°52'0 0.0
2017-Sep-11 01:58N 52°24' E 004°52'0 0.0
2017-Sep-11 01:28N 52°24' E 004°52'0 0.0
2017-Sep-11 00:58N 52°24' E 004°52'0 0.0
2017-Sep-11 00:28N 52°24' E 004°52'  
Track history (hours):
 
Tides and Currents Weather Stations Pressure Air Temp Water Temp Dewpoint Dewpoint Depression Visibility Wind Speed Wind Dir Waves Ship Positions

Avalon

Last reported at 2017-Sep-21 00:13 UTC. Time now 2017-Sep-23 09:29 UTC.
Position N 53°11' W 009°38'.

Length 89 m; draft 3.2 m.

Type: Cargo ship. MMSI: 246578000.

Date/timePositionNaut miles runAvg speedWind from/ knotsBaromVisibWave heightAir tempDewpointWater temp
2017-Sep-21 00:13N 53°11' W 009°38'2 6.9
2017-Sep-21 00:00N 53°11' W 009°41'4 7.2
2017-Sep-20 23:28N 53°11' W 009°47'3 7.0
2017-Sep-20 23:00N 53°12' W 009°53'3 6.9
2017-Sep-20 22:30N 53°13' W 009°58'4 7.4
2017-Sep-20 22:00N 53°14' W 010°04'4 7.9
2017-Sep-20 21:30N 53°15' W 010°10'4 7.5
2017-Sep-20 21:00N 53°18' W 010°15'4 8.0
2017-Sep-20 20:30N 53°22' W 010°17'4 7.9
2017-Sep-20 20:00N 53°25' W 010°19'4 7.9
2017-Sep-20 19:30N 53°29' W 010°21'4 8.2
2017-Sep-20 19:00N 53°33' W 010°23'4 8.0
2017-Sep-20 18:30N 53°37' W 010°24'4 7.9
2017-Sep-20 18:00N 53°41' W 010°25'4 8.1
2017-Sep-20 17:30N 53°45' W 010°25'4 8.3
2017-Sep-20 16:59N 53°49' W 010°25'4 8.8
2017-Sep-20 16:30N 53°54' W 010°25'4 8.6
2017-Sep-20 16:01N 53°58' W 010°25'4 8.0
2017-Sep-20 15:30N 54°02' W 010°25'13 8.5
2017-Sep-20 13:59N 54°15' W 010°24'5 8.5
2017-Sep-20 13:24N 54°20' W 010°23'15 7.7
2017-Sep-20 11:24N 54°30' W 010°03'8 7.3
2017-Sep-20 10:19N 54°35' W 009°53'10 7.6
2017-Sep-20 09:03N 54°41' W 009°40'0 7.9
2017-Sep-20 08:59N 54°41' W 009°39'28 8.3
2017-Sep-20 05:34N 54°59' W 008°60'1 8.7
2017-Sep-20 05:28N 54°59' W 008°58'7 8.4
2017-Sep-20 04:39N 55°04' W 008°49'2 7.9
2017-Sep-20 04:24N 55°05' W 008°47'3 6.6
2017-Sep-20 04:00N 55°07' W 008°43'3 5.1
2017-Sep-20 03:29N 55°08' W 008°40'3 5.2
2017-Sep-20 02:54N 55°10' W 008°35'3 6.2
2017-Sep-20 02:21N 55°12' W 008°30'2 6.0
2017-Sep-20 02:00N 55°13' W 008°28'4 6.8
2017-Sep-20 01:22N 55°16' W 008°22'4 7.2
2017-Sep-20 00:50N 55°18' W 008°16'3 8.0
2017-Sep-20 00:27N 55°19' W 008°11'11 9.3
2017-Sep-19 23:16N 55°23' W 007°53'4 9.9
2017-Sep-19 22:53N 55°24' W 007°46'410.1
2017-Sep-19 22:27N 55°25' W 007°39'5 9.8
2017-Sep-19 21:58N 55°26' W 007°31'510.5
2017-Sep-19 21:30N 55°27' W 007°22'7 9.8
2017-Sep-19 20:49N 55°28' W 007°11'5 9.3
2017-Sep-19 20:14N 55°27' W 007°01'4 8.8
2017-Sep-19 19:45N 55°27' W 006°54'2 8.8
2017-Sep-19 19:29N 55°27' W 006°50'4 9.2
2017-Sep-19 19:00N 55°26' W 006°42'5 9.5
2017-Sep-19 18:30N 55°26' W 006°34'5 9.9
2017-Sep-19 18:00N 55°25' W 006°25'510.4
2017-Sep-19 17:30N 55°25' W 006°16'611.5
2017-Sep-19 17:00N 55°24' W 006°06'611.9
2017-Sep-19 16:30N 55°20' W 005°58'713.7
2017-Sep-19 16:00N 55°14' W 005°52'713.6
2017-Sep-19 15:28N 55°08' W 005°47'613.8
2017-Sep-19 15:01N 55°02' W 005°43'713.5
2017-Sep-19 14:30N 54°55' W 005°39'713.0
2017-Sep-19 14:00N 54°49' W 005°38'612.0
2017-Sep-19 13:31N 54°43' W 005°43'611.5
2017-Sep-19 13:00N 54°40' W 005°51'3 3.1
2017-Sep-19 11:58N 54°37' W 005°54'0 0.0
2017-Sep-19 09:04N 54°37' W 005°54'0 0.0
2017-Sep-19 08:55N 54°37' W 005°54'0 0.0
2017-Sep-19 06:46N 54°37' W 005°54'0 0.0
2017-Sep-19 06:28N 54°37' W 005°54'0 0.0
2017-Sep-19 06:00N 54°37' W 005°54'0 0.0
2017-Sep-19 05:30N 54°37' W 005°54'0 0.0
2017-Sep-19 04:59N 54°37' W 005°54'0 0.0
2017-Sep-19 04:30N 54°37' W 005°54'0 0.0
2017-Sep-19 04:00N 54°37' W 005°54'0 0.0
2017-Sep-19 03:29N 54°37' W 005°54'0 0.0
2017-Sep-19 03:00N 54°37' W 005°54'0 0.0
2017-Sep-19 02:30N 54°37' W 005°54'0 0.0
2017-Sep-19 02:00N 54°37' W 005°54'0 0.0
2017-Sep-19 01:30N 54°37' W 005°54'0 0.0
2017-Sep-19 01:00N 54°37' W 005°54'0 0.0
2017-Sep-19 00:30N 54°37' W 005°54'0 0.0
2017-Sep-19 00:00N 54°37' W 005°54'0 0.0
2017-Sep-18 23:30N 54°37' W 005°54'0 0.0
2017-Sep-18 23:00N 54°37' W 005°54'0 0.0
2017-Sep-18 22:30N 54°37' W 005°54'0 0.0
2017-Sep-18 21:59N 54°37' W 005°54'0 0.0
2017-Sep-18 21:26N 54°37' W 005°54'0 0.0
2017-Sep-18 20:06N 54°37' W 005°54'0 0.0
2017-Sep-18 19:58N 54°37' W 005°54'0 0.0
2017-Sep-18 19:11N 54°37' W 005°54'0 0.0
2017-Sep-18 19:00N 54°37' W 005°54'0 0.0
2017-Sep-18 18:24N 54°37' W 005°54'0 0.0
2017-Sep-18 18:00N 54°37' W 005°54'0 0.0
2017-Sep-18 17:30N 54°37' W 005°54'0 0.0
2017-Sep-18 17:00N 54°37' W 005°54'0 0.0
2017-Sep-18 16:30N 54°37' W 005°54'0 0.0
2017-Sep-18 16:00N 54°37' W 005°54'0 0.0
2017-Sep-18 15:30N 54°37' W 005°54'0 0.0
2017-Sep-18 14:59N 54°37' W 005°54'0 0.0
2017-Sep-18 14:30N 54°37' W 005°54'0 0.0
2017-Sep-18 14:00N 54°37' W 005°54'0 0.0
2017-Sep-18 13:30N 54°37' W 005°54'0 0.0
2017-Sep-18 13:00N 54°37' W 005°54'0 0.0
2017-Sep-18 12:29N 54°37' W 005°54'0 0.0
2017-Sep-18 12:00N 54°37' W 005°54'0 0.0
2017-Sep-18 11:29N 54°37' W 005°54'0 0.0
2017-Sep-18 11:00N 54°37' W 005°54'0 0.0
2017-Sep-18 10:23N 54°37' W 005°54'0 0.0
2017-Sep-18 09:50N 54°37' W 005°54'0 0.0
2017-Sep-18 09:19N 54°37' W 005°54'0 0.0
2017-Sep-18 09:00N 54°37' W 005°54'0 0.0
2017-Sep-18 08:14N 54°37' W 005°54'0 0.0
2017-Sep-18 07:56N 54°37' W 005°54'0 0.0
2017-Sep-18 07:29N 54°37' W 005°54'0 0.0
2017-Sep-18 07:00N 54°37' W 005°54'0 0.0
2017-Sep-18 06:28N 54°37' W 005°54'0 0.0
2017-Sep-18 05:59N 54°37' W 005°54'0 0.0
2017-Sep-18 05:30N 54°37' W 005°54'0 0.0
2017-Sep-18 05:00N 54°37' W 005°54'0 0.0
2017-Sep-18 04:30N 54°37' W 005°54'0 0.0
2017-Sep-18 04:00N 54°37' W 005°54'0 0.0
2017-Sep-18 03:30N 54°37' W 005°54'0 0.0
2017-Sep-18 02:59N 54°37' W 005°54'0 0.0
2017-Sep-18 02:30N 54°37' W 005°54'0 0.0
2017-Sep-18 02:00N 54°37' W 005°54'0 0.0
2017-Sep-18 01:30N 54°37' W 005°54'0 0.0
2017-Sep-18 01:00N 54°37' W 005°54'0 0.0
2017-Sep-18 00:29N 54°37' W 005°54'0 0.0
2017-Sep-18 00:00N 54°37' W 005°54'0 0.0
2017-Sep-17 23:30N 54°37' W 005°54'0 0.0
2017-Sep-17 23:00N 54°37' W 005°54'0 0.0
2017-Sep-17 22:29N 54°37' W 005°54'0 0.0
2017-Sep-17 21:59N 54°37' W 005°54'0 0.0
2017-Sep-17 21:30N 54°37' W 005°54'0 0.0
2017-Sep-17 21:00N 54°37' W 005°54'0 0.0
2017-Sep-17 20:30N 54°37' W 005°54'0 0.0
2017-Sep-17 20:00N 54°37' W 005°54'0 0.0
2017-Sep-17 19:29N 54°37' W 005°54'0 0.0
2017-Sep-17 18:58N 54°37' W 005°54'0 0.0
2017-Sep-17 18:30N 54°37' W 005°54'2 3.9
2017-Sep-17 18:00N 54°39' W 005°52'510.0
2017-Sep-17 17:30N 54°42' W 005°45'2 3.8
2017-Sep-17 16:59N 54°41' W 005°42'0 0.0
2017-Sep-17 16:29N 54°41' W 005°42'0 0.0
2017-Sep-17 15:59N 54°41' W 005°42'0 0.0
2017-Sep-17 15:29N 54°41' W 005°42'0 0.0
2017-Sep-17 14:59N 54°41' W 005°42'0 0.0
2017-Sep-17 14:29N 54°41' W 005°42'0 0.0
2017-Sep-17 13:59N 54°41' W 005°42'0 0.0
2017-Sep-17 13:29N 54°41' W 005°42'0 0.0
2017-Sep-17 12:59N 54°41' W 005°42'0 0.0
2017-Sep-17 12:29N 54°41' W 005°42'0 0.0
2017-Sep-17 11:59N 54°41' W 005°42'0 0.0
2017-Sep-17 11:29N 54°41' W 005°42'0 0.0
2017-Sep-17 10:59N 54°41' W 005°42'0 0.0
2017-Sep-17 10:29N 54°41' W 005°42'0 0.0
2017-Sep-17 09:59N 54°41' W 005°42'0 0.0
2017-Sep-17 09:29N 54°41' W 005°42'0 0.0
2017-Sep-17 08:59N 54°41' W 005°42'0 0.0
2017-Sep-17 08:29N 54°41' W 005°42'0 0.0
2017-Sep-17 07:59N 54°41' W 005°42'0 0.0
2017-Sep-17 07:29N 54°41' W 005°42'0 0.0
2017-Sep-17 06:59N 54°41' W 005°42'0 0.0
2017-Sep-17 06:29N 54°41' W 005°42'0 0.0
2017-Sep-17 05:59N 54°41' W 005°42'0 0.0
2017-Sep-17 05:29N 54°41' W 005°42'0 0.0
2017-Sep-17 04:59N 54°41' W 005°42'0 0.0
2017-Sep-17 04:29N 54°41' W 005°42'0 0.0
2017-Sep-17 03:59N 54°41' W 005°42'0 0.0
2017-Sep-17 03:29N 54°41' W 005°42'0 0.0
2017-Sep-17 02:59N 54°41' W 005°42'0 0.0
2017-Sep-17 02:29N 54°41' W 005°42'0 0.0
2017-Sep-17 01:59N 54°41' W 005°42'0 0.0
2017-Sep-17 01:29N 54°41' W 005°42'0 0.0
2017-Sep-17 00:59N 54°41' W 005°42'0 0.0
2017-Sep-17 00:29N 54°41' W 005°42'0 0.0
2017-Sep-16 23:59N 54°41' W 005°42'0 0.0
2017-Sep-16 23:29N 54°41' W 005°42'0 0.0
2017-Sep-16 22:56N 54°41' W 005°42'0 0.0
2017-Sep-16 22:29N 54°41' W 005°42'0 0.0
2017-Sep-16 22:00N 54°41' W 005°42'0 0.1
2017-Sep-16 21:30N 54°41' W 005°42'2 4.1
2017-Sep-16 21:00N 54°43' W 005°41'5 9.1
2017-Sep-16 20:30N 54°48' W 005°39'510.0
2017-Sep-16 20:01N 54°52' W 005°42'510.3
2017-Sep-16 19:30N 54°56' W 005°48'510.9
2017-Sep-16 19:00N 55°02' W 005°51'611.5
2017-Sep-16 18:30N 55°07' W 005°54'612.5
2017-Sep-16 18:00N 55°13' W 005°58'612.6
2017-Sep-16 17:30N 55°18' W 006°04'611.5
2017-Sep-16 17:01N 55°21' W 006°12'611.3
2017-Sep-16 16:30N 55°24' W 006°22'511.0
2017-Sep-16 16:00N 55°27' W 006°30'510.6
2017-Sep-16 15:30N 55°31' W 006°35'510.5
2017-Sep-16 15:00N 55°35' W 006°40'510.3
2017-Sep-16 14:30N 55°40' W 006°46'5 9.4
2017-Sep-16 14:00N 55°44' W 006°50'5 9.1
2017-Sep-16 13:30N 55°48' W 006°54'168 8.9
2017-Sep-15 18:35N 58°28' W 005°22'1 9.5
2017-Sep-15 18:28N 58°29' W 005°21'36 7.2
2017-Sep-15 13:29N 58°41' W 004°16'4 7.8
2017-Sep-15 13:00N 58°41' W 004°09'4 7.9
2017-Sep-15 12:30N 58°41' W 004°01'4 8.2
2017-Sep-15 12:00N 58°42' W 003°53'4 8.1
2017-Sep-15 11:30N 58°42' W 003°46'4 8.2
2017-Sep-15 11:00N 58°42' W 003°38'4 8.2
2017-Sep-15 10:30N 58°42' W 003°30'4 8.8
2017-Sep-15 10:00N 58°43' W 003°22'510.1
2017-Sep-15 09:30N 58°43' W 003°12'611.0
2017-Sep-15 09:00N 58°41' W 003°02'510.7
2017-Sep-15 08:30N 58°38' W 002°55'5 9.1
2017-Sep-15 08:01N 58°34' W 002°50'5 8.9
2017-Sep-15 07:30N 58°30' W 002°44'4 8.7
2017-Sep-15 06:59N 58°27' W 002°39'41 8.0
2017-Sep-15 01:49N 57°53' W 001°53'3 7.8
2017-Sep-15 01:30N 57°51' W 001°50'4 8.1
2017-Sep-15 01:01N 57°48' W 001°46'4 7.9
2017-Sep-15 00:30N 57°44' W 001°43'4 8.0
2017-Sep-15 00:00N 57°41' W 001°38'4 7.8
2017-Sep-14 23:30N 57°38' W 001°34'4 7.9
2017-Sep-14 23:00N 57°34' W 001°31'4 8.2
2017-Sep-14 22:30N 57°30' W 001°29'170 7.6
2017-Sep-14 00:03N 54°48' E 000°01'1 9.0
2017-Sep-13 23:59N 54°48' E 000°01'4 9.0
2017-Sep-13 23:30N 54°43' E 000°03'4 8.9
2017-Sep-13 23:00N 54°39' E 000°05'4 8.9
2017-Sep-13 22:30N 54°35' E 000°08'4 8.7
2017-Sep-13 22:00N 54°31' E 000°09'4 8.4
2017-Sep-13 21:30N 54°27' E 000°11'4 8.3
2017-Sep-13 21:00N 54°23' E 000°13'4 8.1
2017-Sep-13 20:30N 54°19' E 000°15'4 8.3
2017-Sep-13 20:00N 54°15' E 000°18'4 8.4
2017-Sep-13 19:30N 54°11' E 000°20'4 8.8
2017-Sep-13 19:01N 54°07' E 000°23'5 9.0
2017-Sep-13 18:30N 54°03' E 000°26'5 8.9
2017-Sep-13 18:00N 53°59' E 000°29'46 8.5
2017-Sep-13 12:38N 53°19' E 001°09'1 5.9
2017-Sep-13 12:30N 53°19' E 001°09'3 5.9
2017-Sep-13 12:00N 53°16' E 001°11'2 4.8
2017-Sep-13 11:30N 53°14' E 001°13'2 3.9
2017-Sep-13 11:00N 53°13' E 001°16'2 3.8
2017-Sep-13 10:30N 53°11' E 001°17'2 4.1
2017-Sep-13 10:00N 53°09' E 001°19'2 4.2
2017-Sep-13 09:30N 53°07' E 001°21'2 3.9
2017-Sep-13 09:00N 53°06' E 001°22'2 4.2
2017-Sep-13 08:30N 53°04' E 001°24'2 4.2
2017-Sep-13 08:00N 53°02' E 001°26'3 5.2
2017-Sep-13 07:30N 53°00' E 001°29'3 6.0
2017-Sep-13 07:00N 52°58' E 001°32'4 7.2
2017-Sep-13 06:30N 52°55' E 001°36'4 8.5
2017-Sep-13 06:00N 52°52' E 001°40'5 9.1
2017-Sep-13 05:30N 52°48' E 001°46'5 9.4
2017-Sep-13 05:00N 52°45' E 001°51'5 9.8
2017-Sep-13 04:30N 52°41' E 001°55'4 7.9
2017-Sep-13 04:00N 52°40' E 002°02'4 7.1
2017-Sep-13 03:30N 52°39' E 002°07'64 7.7
2017-Sep-12 19:13N 52°32' E 003°52'2 7.9
2017-Sep-12 19:00N 52°32' E 003°55'4 7.7
2017-Sep-12 18:29N 52°32' E 004°02'4 7.4
2017-Sep-12 18:00N 52°31' E 004°07'4 7.4
2017-Sep-12 17:30N 52°31' E 004°13'4 7.6
2017-Sep-12 17:00N 52°30' E 004°19'4 7.7
2017-Sep-12 16:30N 52°29' E 004°26'4 7.6
2017-Sep-12 16:00N 52°28' E 004°32'2 4.7
2017-Sep-12 15:30N 52°28' E 004°36'2 3.7
2017-Sep-12 15:00N 52°28' E 004°39'4 8.3
2017-Sep-12 14:31N 52°26' E 004°45'4 9.0
2017-Sep-12 14:01N 52°25' E 004°52'0 0.8
2017-Sep-12 13:30N 52°24' E 004°52'0 0.0
2017-Sep-12 13:01N 52°24' E 004°52'0 0.0
2017-Sep-12 12:31N 52°24' E 004°52'0 0.0
2017-Sep-12 12:01N 52°24' E 004°52'0 0.0
2017-Sep-12 11:31N 52°24' E 004°52'0 0.0
2017-Sep-12 10:57N 52°24' E 004°52'0 0.0
2017-Sep-12 10:31N 52°24' E 004°52'0 0.3
2017-Sep-12 10:01N 52°25' E 004°52'1 1.2
2017-Sep-12 09:28N 52°24' E 004°52'0 0.0
2017-Sep-12 08:58N 52°24' E 004°52'0 0.0
2017-Sep-12 08:28N 52°24' E 004°52'0 0.0
2017-Sep-12 07:58N 52°24' E 004°52'0 0.0
2017-Sep-12 07:28N 52°24' E 004°52'0 0.0
2017-Sep-12 06:58N 52°24' E 004°52'0 0.0
2017-Sep-12 06:28N 52°24' E 004°52'0 0.0
2017-Sep-12 05:58N 52°24' E 004°52'0 0.0
2017-Sep-12 05:28N 52°24' E 004°52'0 0.0
2017-Sep-12 04:58N 52°24' E 004°52'0 0.0
2017-Sep-12 04:28N 52°24' E 004°52'0 0.0
2017-Sep-12 03:58N 52°24' E 004°52'0 0.0
2017-Sep-12 03:28N 52°24' E 004°52'0 0.0
2017-Sep-12 02:58N 52°24' E 004°52'0 0.0
2017-Sep-12 02:28N 52°24' E 004°52'0 0.0
2017-Sep-12 01:58N 52°24' E 004°52'0 0.0
2017-Sep-12 01:28N 52°24' E 004°52'0 0.0
2017-Sep-12 00:58N 52°24' E 004°52'0 0.0
2017-Sep-12 00:25N 52°24' E 004°52'0 0.0
2017-Sep-11 23:58N 52°24' E 004°52'0 0.0
2017-Sep-11 23:28N 52°24' E 004°52'0 0.0
2017-Sep-11 22:58N 52°24' E 004°52'0 0.0
2017-Sep-11 22:28N 52°24' E 004°52'0 0.0
2017-Sep-11 21:58N 52°24' E 004°52'0 0.0
2017-Sep-11 21:28N 52°24' E 004°52'0 0.0
2017-Sep-11 20:58N 52°24' E 004°52'0 0.0
2017-Sep-11 20:28N 52°24' E 004°52'0 0.0
2017-Sep-11 19:58N 52°24' E 004°52'0 0.0
2017-Sep-11 19:28N 52°24' E 004°52'0 0.0
2017-Sep-11 18:58N 52°24' E 004°52'0 0.0
2017-Sep-11 18:28N 52°24' E 004°52'0 0.0
2017-Sep-11 17:58N 52°24' E 004°52'0 0.0
2017-Sep-11 17:28N 52°24' E 004°52'0 0.0
2017-Sep-11 16:58N 52°24' E 004°52'0 0.0
2017-Sep-11 16:28N 52°24' E 004°52'0 0.0
2017-Sep-11 15:58N 52°24' E 004°52'0 0.0
2017-Sep-11 15:28N 52°24' E 004°52'0 0.0
2017-Sep-11 14:58N 52°24' E 004°52'0 0.0
2017-Sep-11 14:28N 52°24' E 004°52'0 0.0
2017-Sep-11 13:58N 52°24' E 004°52'0 0.0
2017-Sep-11 13:25N 52°24' E 004°52'0 0.0
2017-Sep-11 12:58N 52°24' E 004°52'0 0.0
2017-Sep-11 12:28N 52°24' E 004°52'0 0.0
2017-Sep-11 11:58N 52°24' E 004°52'0 0.0
2017-Sep-11 11:28N 52°24' E 004°52'0 0.0
2017-Sep-11 10:58N 52°24' E 004°52'0 0.0
2017-Sep-11 10:28N 52°24' E 004°52'0 0.0
2017-Sep-11 09:58N 52°24' E 004°52'0 0.0
2017-Sep-11 09:28N 52°24' E 004°52'0 0.0
2017-Sep-11 08:58N 52°24' E 004°52'0 0.0
2017-Sep-11 08:28N 52°24' E 004°52'0 0.0
2017-Sep-11 07:58N 52°24' E 004°52'0 0.0
2017-Sep-11 07:25N 52°24' E 004°52'0 0.0
2017-Sep-11 06:58N 52°24' E 004°52'0 0.0
2017-Sep-11 06:28N 52°24' E 004°52'0 0.0
2017-Sep-11 05:58N 52°24' E 004°52'0 0.0
2017-Sep-11 05:28N 52°24' E 004°52'0 0.0
2017-Sep-11 04:58N 52°24' E 004°52'0 0.0
2017-Sep-11 04:28N 52°24' E 004°52'0 0.0
2017-Sep-11 03:58N 52°24' E 004°52'0 0.0
2017-Sep-11 03:28N 52°24' E 004°52'0 0.0
2017-Sep-11 02:58N 52°24' E 004°52'0 0.0
2017-Sep-11 02:28N 52°24' E 004°52'0 0.0
2017-Sep-11 01:58N 52°24' E 004°52'0 0.0
2017-Sep-11 01:28N 52°24' E 004°52'0 0.0
2017-Sep-11 00:58N 52°24' E 004°52'0 0.0
2017-Sep-11 00:28N 52°24' E 004°52'  

Dump ship's entire track history